• Join FlightAware (Why Join?)
  • Login
  • US Flag 
02:03AM EST


 

Airport Tracker/Info


-or-


 

Live Flight TrackerFlight Track Log ✈ EJA114 ✈ 30-Jun-2013 ✈ KJQF - KJAX

Flight Track Log - Related Links

Times and Time Zones

All times are in EDT time to prevent confusion due to time zone crossing. See the EJA114 flight status page for this flight to view local times or setup timezone preferences in your user account.

Time Position Orientation Groundspeed Altitude Reporting Facility
EDT Latitude Longitude Course Direction KTS MPH feet Rate Location/Type
06:34PM 35.3750 -80.7147 152° Southeast 147 169 1,200  Level Atlanta Center
06:36PM 35.3156 -80.6764 152° Southeast 185 213 3,300 2,055 Climbing Atlanta Center
06:37PM 35.2636 -80.6836 186° South 203 234 6,200 2,852 Climbing Atlanta Center
06:38PM 35.2383 -80.7611 248° West 233 268 9,100 2,361 Climbing Atlanta Center
06:39PM 35.2175 -80.8331 251° West 236 272 11,000 1,929 Climbing Atlanta Center
06:40PM 35.1739 -80.9236 240° Southwest 268 308 13,600 1,930 Climbing Atlanta Center
06:42PM 35.0145 -80.9510 248° West  Level Estimated
06:42PM 35.1494 -81.1200 248° West 293 337 17,400  Level Atlanta Center
06:43PM 35.1350 -81.2147 259° West 308 354 19,000 1,600 Climbing Atlanta Center
06:44PM 35.1206 -81.3192 260° West 315 362 20,600 1,400 Climbing Atlanta Center
06:45PM 35.1061 -81.4211 260° West 315 362 21,800 1,150 Climbing Atlanta Center
06:46PM 35.0917 -81.5233 260° West 315 362 22,900 1,100 Climbing Atlanta Center
06:47PM 35.0750 -81.6278 259° West 315 362 24,000 1,050 Climbing Atlanta Center
06:48PM 35.0583 -81.7425 260° West 315 362 25,000 1,050 Climbing Atlanta Center
06:49PM 35.0436 -81.8494 260° West 315 362 26,100 1,000 Climbing Atlanta Center
06:50PM 35.0011 -81.9317 238° Southwest 298 343 27,000 850 Climbing Atlanta Center
06:51PM 34.9247 -81.9667 201° Southwest 269 310 27,800 750 Climbing Atlanta Center
06:52PM 34.8539 -81.9808 189° South 263 303 28,500 700 Climbing Atlanta Center
06:53PM 34.7728 -82.0031 193° South 289 333 29,200 700 Climbing Atlanta Center
06:54PM 34.6878 -82.0306 195° South 303 349 29,900 400 Climbing Atlanta Center
06:55PM 34.6025 -82.0528 192° South 317 365 30,000 50 Climbing Atlanta Center
06:56PM 34.5092 -82.0800 194° South 330 380 30,000  Level Atlanta Center
06:57PM 34.4136 -82.1075 193° South 344 396 30,000  Level Atlanta Center
06:58PM 34.3158 -82.1375 194° South 354 407 30,000  Level Atlanta Center
06:59PM 34.2183 -82.1672 194° South 359 413 30,000  Level Atlanta Center
07:00PM 34.1208 -82.2069 199° South 364 419 30,000  Level Atlanta Center
07:01PM 34.0128 -82.2519 199° South 370 426 30,000  Level Atlanta Center
07:02PM 33.9175 -82.2914 199° South 370 426 30,000  Level Atlanta Center
07:03PM 33.8219 -82.3286 198° South 370 426 30,000  Level Atlanta Center
07:04PM 33.7225 -82.3703 199° South 370 426 30,000  Level Atlanta Center
07:05PM 33.6311 -82.4047 197° South 370 426 30,000  Level Atlanta Center
07:06PM 33.5375 -82.4439 199° South 371 427 30,000  Level Atlanta Center
07:07PM 33.4378 -82.4831 198° South 366 421 30,000  Level Atlanta Center
07:08PM 33.3444 -82.5194 198° South 366 421 30,000  Level Atlanta Center
07:09PM 33.2428 -82.5611 199° South 371 427 30,000  Level Atlanta Center
07:10PM 33.1472 -82.5997 199° South 371 427 30,000  Level Atlanta Center
07:11PM 33.0514 -82.6386 199° South 371 427 30,000  Level Atlanta Center
07:12PM 32.9558 -82.6772 199° South 366 421 30,000  Level Atlanta Center
07:13PM 32.8561 -82.7133 197° South 366 421 30,000  Level Atlanta Center
07:14PM 32.7542 -82.7322 189° South 366 421 30,000  Level Atlanta Center
07:15PM 32.6494 -82.7142 172° South 366 421 30,000  Level Atlanta Center
07:16PM 32.5492 -82.6933 170° South 366 421 30,000  Level Atlanta Center
07:17PM 32.4486 -82.6753 171° South 366 421 30,000  Level Atlanta Center
07:18PM 32.3461 -82.6547 170° South 373 429 30,000 -1,250 Level Atlanta Center
07:20PM 32.1036 -82.6081 171° South 399 459 26,000 -1,250 Descending Jacksonville Center
07:21PM 31.9950 -82.5914 173° South 405 466 26,000 -250 Level Jacksonville Center
07:22PM 31.8883 -82.5697 170° South 405 466 25,500 -850 Descending Jacksonville Center
07:23PM 31.7819 -82.5506 171° South 400 460 24,300 -1,450 Descending Jacksonville Center
07:24PM 31.6650 -82.5314 172° South 395 455 22,600 -1,600 Descending Jacksonville Center
07:25PM 31.5606 -82.5122 171° South 390 449 21,100 -1,550 Descending Jacksonville Center
07:26PM 31.4581 -82.4711 161° South 390 449 19,500 -1,600 Descending Jacksonville Center
07:27PM 31.3619 -82.4206 156° South 384 442 17,900 -1,550 Descending Jacksonville Center
07:28PM 31.2697 -82.3772 158° South 373 429 16,400 -1,500 Descending Jacksonville Center
07:29PM 31.1736 -82.3342 159° South 373 429 14,900 -1,438 Descending Jacksonville Center
07:30PM 31.1192 -82.3028 154° Southeast 358 412 14,100 -1,350 Descending Jacksonville Center
07:31PM 30.9978 -82.2456 158° South 354 407 12,200 -958 Descending Jacksonville Center
07:32PM 30.9264 -82.1856 144° Southeast 335 386 11,800 -1,200 Descending Jacksonville Center
07:33PM 30.8656 -82.1400 147° Southeast 297 342 9,800 -1,800 Descending Jacksonville Center
07:34PM 30.8089 -82.1017 150° Southeast 261 300 8,200 -1,400 Descending Jacksonville Center
07:35PM 30.7586 -82.0608 145° Southeast 234 269 7,000 -1,200 Descending Jacksonville Center
07:36PM 30.7208 -82.0131 133° Southeast 212 244 5,800 -1,100 Descending Jacksonville Center
07:37PM 30.6828 -81.9650 133° Southeast 199 229 4,800 -1,000 Descending Jacksonville Center
07:38PM 30.6492 -81.9169 129° Southeast 199 229 3,800 -1,000 Descending Jacksonville Center
07:39PM 30.6131 -81.8692 131° Southeast 194 223 2,800 -857 Descending Jacksonville Center
07:40PM 30.5731 -81.8142 130° Southeast 202 232 2,000 -614 Descending Jacksonville Center
07:41PM 30.5372 -81.7686 132° Southeast 186 214 1,500 -639 Descending Jacksonville Center
07:42PM 30.5097 -81.7303 130° Southeast 123 142 700 -787 Descending Jacksonville Center
07:44PM 30.4941 -81.6879 135° Southeast  Level Estimated
07:51PM 30.4941 -81.6879 311° West  Level Estimated
07:52PM 30.4941 -81.6879 311° West  Level Estimated